Time;durP1;ratioP1;P1;durP2;ratioP2;P2;SDS_P1;SDS_P2;PMS_P1;PMS_P2;Temp;Humidity;BMP_temperature;BMP_pressure;BME280_temperature;BME280_humidity;BME280_pressure;Samples;Min_cycle;Max_cycle;Signal;HPM_P1;HPM_P2
2022/04/15 00:00:04;;;;;;;12.80;8.30;;;;;;;-145.18;100.00;60484.78;5018459;28;21016;-69
2022/04/15 00:02:30;;;;;;;18.70;8.20;;;;;;;-145.18;100.00;60484.78;5020402;28;20029;-69
2022/04/15 00:04:57;;;;;;;13.87;7.60;;;;;;;-145.18;100.00;60484.78;5020733;28;20029;-68
2022/04/15 00:07:23;;;;;;;13.20;7.67;;;;;;;-145.18;100.00;60484.78;5020373;28;20091;-69
2022/04/15 00:09:48;;;;;;;13.60;7.43;;;;;;;-145.18;100.00;60484.78;5024214;28;20037;-69
2022/04/15 00:12:18;;;;;;;12.73;7.00;;;;;;;-145.18;100.00;60484.78;5024765;28;20060;-68
2022/04/15 00:14:44;;;;;;;13.30;6.43;;;;;;;-145.18;100.00;60484.78;5025436;28;20485;-69
2022/04/15 00:17:11;;;;;;;12.10;6.43;;;;;;;-145.18;100.00;60484.78;5027661;28;20030;-69
2022/04/15 00:19:36;;;;;;;11.97;6.40;;;;;;;-145.18;100.00;60484.78;5022793;28;20071;-69
2022/04/15 00:22:02;;;;;;;10.60;6.03;;;;;;;-145.18;100.00;60484.78;5005046;28;20132;-69
2022/04/15 00:24:27;;;;;;;13.30;6.33;;;;;;;-145.18;100.00;60484.78;5025914;28;20037;-69
2022/04/15 00:26:53;;;;;;;12.53;5.43;;;;;;;-145.18;100.00;60484.78;5026212;28;20029;-69
2022/04/15 00:29:21;;;;;;;10.17;5.47;;;;;;;-145.18;100.00;60484.78;5026533;28;20044;-69
2022/04/15 00:31:47;;;;;;;14.13;5.33;;;;;;;-145.18;100.00;60484.78;5025413;28;20094;-69
2022/04/15 00:34:12;;;;;;;9.47;4.73;;;;;;;-145.18;100.00;60484.78;5024271;28;20513;-69
2022/04/15 00:36:37;;;;;;;9.33;4.80;;;;;;;-145.18;100.00;60484.78;5026269;28;20159;-69
2022/04/15 00:39:03;;;;;;;6.73;4.60;;;;;;;-145.18;100.00;60484.78;5023403;28;20430;-68
2022/04/15 00:41:28;;;;;;;9.63;5.00;;;;;;;-145.18;100.00;60484.78;5014768;28;20033;-69
2022/04/15 00:43:55;;;;;;;7.63;4.80;;;;;;;-145.18;100.00;60484.78;5031506;28;20021;-68
2022/04/15 00:46:21;;;;;;;8.27;4.50;;;;;;;-145.18;100.00;60484.78;5024420;28;20449;-69
2022/04/15 00:48:46;;;;;;;9.10;5.07;;;;;;;-145.18;100.00;60484.78;5028953;28;20038;-69
2022/04/15 00:51:11;;;;;;;7.80;4.13;;;;;;;-145.18;100.00;60484.78;5020561;28;20025;-69
2022/04/15 00:53:39;;;;;;;8.87;4.50;;;;;;;-145.18;100.00;60484.78;5029888;28;20064;-69
2022/04/15 00:56:06;;;;;;;8.97;4.80;;;;;;;-145.18;100.00;60484.78;5027076;28;20025;-69
2022/04/15 00:58:33;;;;;;;10.50;4.67;;;;;;;-145.18;100.00;60484.78;5030980;28;20037;-69
2022/04/15 01:00:59;;;;;;;10.93;5.13;;;;;;;-145.18;100.00;60484.78;5023501;28;20025;-69
2022/04/15 01:03:25;;;;;;;7.27;4.53;;;;;;;-145.18;100.00;60484.78;5025547;28;20034;-69
2022/04/15 01:05:55;;;;;;;7.57;4.33;;;;;;;-145.18;100.00;60484.78;5025888;28;20761;-69
2022/04/15 01:08:22;;;;;;;10.30;5.10;;;;;;;-145.18;100.00;60484.78;5022870;28;20398;-69
2022/04/15 01:10:51;;;;;;;7.87;4.40;;;;;;;-145.18;100.00;60484.78;5023181;28;20044;-69
2022/04/15 01:13:20;;;;;;;9.63;4.90;;;;;;;-145.18;100.00;60484.78;5026587;28;20037;-69
2022/04/15 01:15:46;;;;;;;9.17;5.30;;;;;;;-145.18;100.00;60484.78;5028072;28;20522;-69
2022/04/15 01:18:12;;;;;;;7.30;4.60;;;;;;;-145.18;100.00;60484.78;5027285;28;20073;-69
2022/04/15 01:20:39;;;;;;;8.13;5.00;;;;;;;-145.18;100.00;60484.78;5029872;28;20065;-69
2022/04/15 01:23:06;;;;;;;8.27;4.60;;;;;;;-145.18;100.00;60484.78;5030161;28;20044;-69
2022/04/15 01:25:32;;;;;;;10.13;5.00;;;;;;;-145.18;100.00;60484.78;5026252;28;20033;-69
2022/04/15 01:27:58;;;;;;;6.90;4.93;;;;;;;-145.18;100.00;60484.78;5028857;28;20047;-69
2022/04/15 01:30:24;;;;;;;10.77;4.80;;;;;;;-145.18;100.00;60484.78;5031002;28;20168;-69
2022/04/15 01:32:49;;;;;;;8.13;4.70;;;;;;;-145.18;100.00;60484.78;5032114;28;20120;-69
2022/04/15 01:35:17;;;;;;;7.07;4.80;;;;;;;-145.18;100.00;60484.78;5029295;28;20029;-69
2022/04/15 01:37:44;;;;;;;8.53;4.90;;;;;;;-145.18;100.00;60484.78;5029658;28;20040;-69
2022/04/15 01:40:11;;;;;;;10.60;5.00;;;;;;;-145.18;100.00;60484.78;5026193;28;20508;-68
2022/04/15 01:42:38;;;;;;;8.13;5.20;;;;;;;-145.18;100.00;60484.78;5028199;28;20025;-69
2022/04/15 01:45:05;;;;;;;8.90;5.47;;;;;;;-145.18;100.00;60484.78;5024601;28;20033;-69
2022/04/15 01:47:31;;;;;;;9.67;5.40;;;;;;;-145.18;100.00;60484.78;5031106;28;20508;-68
2022/04/15 01:49:56;;;;;;;10.27;5.80;;;;;;;-145.18;100.00;60484.78;5024403;28;20025;-69
2022/04/15 01:52:22;;;;;;;9.13;5.90;;;;;;;-145.18;100.00;60484.78;5030045;28;20017;-69
2022/04/15 01:54:47;;;;;;;11.40;6.07;;;;;;;-145.18;100.00;60484.78;5030104;28;20059;-69
2022/04/15 01:57:14;;;;;;;11.00;6.37;;;;;;;-145.18;100.00;60484.78;5028025;28;20033;-69
2022/04/15 01:59:40;;;;;;;13.00;6.53;;;;;;;-145.18;100.00;60484.78;5028968;28;20021;-69
2022/04/15 02:02:06;;;;;;;9.87;6.10;;;;;;;-145.18;100.00;60484.78;5023797;28;20457;-69
2022/04/15 02:04:32;;;;;;;11.93;6.93;;;;;;;-145.18;100.00;60484.78;5024311;28;20025;-69
2022/04/15 02:06:58;;;;;;;10.70;7.30;;;;;;;-145.18;100.00;60484.78;5022338;28;20045;-69
2022/04/15 02:09:23;;;;;;;13.43;7.47;;;;;;;-145.18;100.00;60484.78;5026509;28;20033;-69
2022/04/15 02:11:49;;;;;;;11.90;7.30;;;;;;;-145.18;100.00;60484.78;5028844;28;20040;-69
2022/04/15 02:14:16;;;;;;;11.93;7.73;;;;;;;-145.18;100.00;60484.78;5025702;28;20037;-69
2022/04/15 02:16:42;;;;;;;11.87;7.60;;;;;;;-145.18;100.00;60484.78;5028664;28;20056;-69
2022/04/15 02:19:08;;;;;;;13.03;7.73;;;;;;;-145.18;100.00;60484.78;5024824;28;20025;-69
2022/04/15 02:21:33;;;;;;;14.10;7.63;;;;;;;-145.18;100.00;60484.78;5025916;28;20092;-69
2022/04/15 02:23:59;;;;;;;11.63;6.97;;;;;;;-145.18;100.00;60484.78;5024777;28;20044;-69
2022/04/15 02:26:24;;;;;;;12.77;6.83;;;;;;;-145.18;100.00;60484.78;5028705;28;20088;-69
2022/04/15 02:28:50;;;;;;;9.50;5.83;;;;;;;-145.18;100.00;60484.78;5029161;28;20033;-69
2022/04/15 02:31:15;;;;;;;10.30;6.07;;;;;;;-145.18;100.00;60484.78;5023385;28;20633;-69
2022/04/15 02:33:41;;;;;;;10.33;6.00;;;;;;;-145.18;100.00;60484.78;5023149;28;20037;-69
2022/04/15 02:36:06;;;;;;;9.73;5.70;;;;;;;-145.18;100.00;60484.78;5024374;28;20026;-69
2022/04/15 02:38:32;;;;;;;11.03;6.40;;;;;;;-145.18;100.00;60484.78;5024663;28;20163;-69
2022/04/15 02:40:58;;;;;;;11.45;6.00;;;;;;;-145.18;100.00;60484.78;5022150;28;20366;-69
2022/04/15 02:43:31;;;;;;;9.77;5.30;;;;;;;-145.18;100.00;60484.78;5028132;28;20076;-68
2022/04/15 02:46:01;;;;;;;9.50;5.40;;;;;;;-145.18;100.00;60484.78;5022855;28;20385;-69
2022/04/15 02:48:28;;;;;;;10.70;4.97;;;;;;;-145.18;100.00;60484.78;5023077;28;20163;-69
2022/04/15 02:50:54;;;;;;;9.87;5.43;;;;;;;-145.18;100.00;60484.78;5023988;28;20025;-69
2022/04/15 02:53:20;;;;;;;10.03;5.63;;;;;;;-145.18;100.00;60484.78;5026116;28;20045;-69
2022/04/15 02:55:46;;;;;;;8.17;5.03;;;;;;;-145.18;100.00;60484.78;5022409;28;20035;-69
2022/04/15 02:58:11;;;;;;;9.63;6.00;;;;;;;-145.18;100.00;60484.78;5004818;28;20033;-69
2022/04/15 03:00:37;;;;;;;13.10;5.43;;;;;;;-145.18;100.00;60484.78;5025878;28;20047;-69
2022/04/15 03:03:02;;;;;;;10.83;5.40;;;;;;;-145.18;100.00;60484.78;5022630;28;20029;-69
2022/04/15 03:05:28;;;;;;;11.13;5.70;;;;;;;-145.18;100.00;60484.78;5026583;28;20463;-69
2022/04/15 03:07:53;;;;;;;12.43;6.57;;;;;;;-145.18;100.00;60484.78;5027803;28;20022;-69
2022/04/15 03:10:19;;;;;;;8.87;5.90;;;;;;;-145.18;100.00;60484.78;5022771;28;20029;-69
2022/04/15 03:12:44;;;;;;;9.13;5.70;;;;;;;-145.18;100.00;60484.78;5025318;28;20028;-68
2022/04/15 03:15:10;;;;;;;9.73;5.60;;;;;;;-145.18;100.00;60484.78;5026928;28;20057;-69
2022/04/15 03:17:36;;;;;;;14.03;6.03;;;;;;;-145.18;100.00;60484.78;5026577;28;20026;-69
2022/04/15 03:20:02;;;;;;;10.77;5.80;;;;;;;-145.18;100.00;60484.78;5029319;28;20044;-68
2022/04/15 03:22:38;;;;;;;10.27;5.93;;;;;;;-145.18;100.00;60484.78;5029215;28;20211;-69
2022/04/15 03:25:06;;;;;;;10.87;6.10;;;;;;;-145.18;100.00;60484.78;5028105;28;20025;-69
2022/04/15 03:27:32;;;;;;;13.33;6.20;;;;;;;-145.18;100.00;60484.78;5029002;28;20500;-69
2022/04/15 03:29:57;;;;;;;11.17;6.33;;;;;;;-145.18;100.00;60484.78;5026771;28;20079;-69
2022/04/15 03:32:24;;;;;;;11.70;6.63;;;;;;;-145.18;100.00;60484.78;5024934;28;20021;-69
2022/04/15 03:34:52;;;;;;;11.27;6.27;;;;;;;-145.18;100.00;60484.78;5024240;28;20634;-69
2022/04/15 03:37:17;;;;;;;10.17;6.10;;;;;;;-145.18;100.00;60484.78;5023963;28;20439;-69
2022/04/15 03:39:43;;;;;;;9.67;5.80;;;;;;;-145.18;100.00;60484.78;5021722;28;20041;-69
2022/04/15 03:42:08;;;;;;;11.37;6.43;;;;;;;-145.18;100.00;60484.78;5023216;28;20320;-69
2022/04/15 03:44:34;;;;;;;14.23;7.43;;;;;;;-145.18;100.00;60484.78;5021403;28;20029;-69
2022/04/15 03:46:59;;;;;;;11.53;6.17;;;;;;;-145.18;100.00;60484.78;5026923;28;20484;-69
2022/04/15 03:49:24;;;;;;;10.27;6.20;;;;;;;-145.18;100.00;60484.78;5011695;28;20025;-69
2022/04/15 03:51:50;;;;;;;12.33;5.70;;;;;;;-145.18;100.00;60484.78;5027779;28;20108;-69
2022/04/15 03:54:15;;;;;;;11.47;6.40;;;;;;;-145.18;100.00;60484.78;5025663;28;20025;-69
2022/04/15 03:56:41;;;;;;;9.97;5.90;;;;;;;-145.18;100.00;60484.78;5026592;28;20616;-69
2022/04/15 03:59:06;;;;;;;11.67;6.10;;;;;;;-145.18;100.00;60484.78;5026154;28;20025;-69
2022/04/15 04:01:31;;;;;;;11.93;6.17;;;;;;;-145.18;100.00;60484.78;5028242;28;20033;-69
2022/04/15 04:03:57;;;;;;;8.33;5.87;;;;;;;-145.18;100.00;60484.78;5026290;28;20528;-69
2022/04/15 04:06:23;;;;;;;10.70;6.00;;;;;;;-145.18;100.00;60484.78;5029987;28;20503;-69
2022/04/15 04:08:51;;;;;;;11.03;6.23;;;;;;;-145.18;100.00;60484.78;5026855;28;20088;-69
2022/04/15 04:11:17;;;;;;;10.60;6.40;;;;;;;-145.18;100.00;60484.78;5008445;28;20040;-69
2022/04/15 04:13:43;;;;;;;11.00;6.83;;;;;;;-145.18;100.00;60484.78;5027313;28;20095;-69
2022/04/15 04:16:09;;;;;;;10.83;6.60;;;;;;;-145.18;100.00;60484.78;5025323;28;20033;-69
2022/04/15 04:18:34;;;;;;;12.03;6.40;;;;;;;-145.18;100.00;60484.78;5025251;28;20033;-69
2022/04/15 04:20:59;;;;;;;12.83;6.70;;;;;;;-145.18;100.00;60484.78;5027917;28;20084;-69
2022/04/15 04:23:25;;;;;;;12.87;6.20;;;;;;;-145.18;100.00;60484.78;5031248;28;20033;-69
2022/04/15 04:25:50;;;;;;;11.23;5.90;;;;;;;-145.18;100.00;60484.78;5018800;28;20032;-69
2022/04/15 04:28:15;;;;;;;10.67;5.90;;;;;;;-145.18;100.00;60484.78;5032403;28;20599;-69
2022/04/15 04:30:41;;;;;;;10.03;5.83;;;;;;;-145.18;100.00;60484.78;5026937;28;20022;-69
2022/04/15 04:33:06;;;;;;;11.17;6.40;;;;;;;-145.18;100.00;60484.78;5028063;28;20830;-69
2022/04/15 04:35:32;;;;;;;9.50;6.87;;;;;;;-145.18;100.00;60484.78;5016775;28;20028;-69
2022/04/15 04:37:57;;;;;;;15.13;10.40;;;;;;;-145.18;100.00;60484.78;5032218;28;20111;-69
2022/04/15 04:40:22;;;;;;;14.70;11.13;;;;;;;-145.18;100.00;60484.78;5023616;28;20044;-69
2022/04/15 04:42:50;;;;;;;13.40;9.30;;;;;;;-145.18;100.00;60484.78;5031853;28;20029;-69
2022/04/15 04:45:16;;;;;;;12.07;8.30;;;;;;;-145.18;100.00;60484.78;5031014;28;20032;-69
2022/04/15 04:47:44;;;;;;;12.27;8.07;;;;;;;-145.18;100.00;60484.78;5033108;28;20047;-69
2022/04/15 04:50:10;;;;;;;14.30;8.10;;;;;;;-145.18;100.00;60484.78;5029218;28;20075;-69
2022/04/15 04:52:36;;;;;;;11.43;7.63;;;;;;;-145.18;100.00;60484.78;5011446;28;20416;-69
2022/04/15 04:55:03;;;;;;;13.50;7.70;;;;;;;-145.18;100.00;60484.78;5010097;28;20033;-69
2022/04/15 04:57:29;;;;;;;13.77;8.20;;;;;;;-145.18;100.00;60484.78;5002717;28;20029;-69
2022/04/15 04:59:56;;;;;;;16.00;8.70;;;;;;;-145.18;100.00;60484.78;5002511;28;20386;-69
2022/04/15 05:02:22;;;;;;;16.27;8.93;;;;;;;-145.18;100.00;60484.78;5004987;28;20045;-69
2022/04/15 05:04:47;;;;;;;14.27;9.00;;;;;;;-145.18;100.00;60484.78;5005083;28;20055;-69
2022/04/15 05:07:14;;;;;;;14.77;8.57;;;;;;;-145.18;100.00;60484.78;5010595;28;20034;-69
2022/04/15 05:09:43;;;;;;;17.10;8.53;;;;;;;-145.18;100.00;60484.78;5008577;28;20029;-69
2022/04/15 05:12:11;;;;;;;13.20;8.27;;;;;;;-145.18;100.00;60484.78;5007801;28;20026;-69
2022/04/15 05:14:37;;;;;;;15.03;8.30;;;;;;;-145.18;100.00;60484.78;5009726;28;20034;-69
2022/04/15 05:17:04;;;;;;;12.97;8.07;;;;;;;-145.18;100.00;60484.78;5007095;28;20044;-69
2022/04/15 05:19:29;;;;;;;13.73;8.60;;;;;;;-145.18;100.00;60484.78;5007941;28;20061;-69
2022/04/15 05:21:54;;;;;;;15.10;8.77;;;;;;;-145.18;100.00;60484.78;5011702;28;20284;-69
2022/04/15 05:24:20;;;;;;;15.87;9.23;;;;;;;-145.18;100.00;60484.78;5006379;28;20300;-69
2022/04/15 05:26:45;;;;;;;15.90;10.13;;;;;;;-145.18;100.00;60484.78;5005020;28;20037;-69
2022/04/15 05:29:11;;;;;;;21.60;11.63;;;;;;;-145.18;100.00;60484.78;5005803;28;20034;-69
2022/04/15 05:31:36;;;;;;;22.23;11.30;;;;;;;-145.18;100.00;60484.78;5004022;28;20021;-69
2022/04/15 05:34:02;;;;;;;21.47;11.03;;;;;;;-145.18;100.00;60484.78;5006682;28;20409;-69
2022/04/15 05:36:28;;;;;;;20.77;12.17;;;;;;;-145.18;100.00;60484.78;5006911;28;20525;-69
2022/04/15 05:38:53;;;;;;;21.17;10.57;;;;;;;-145.18;100.00;60484.78;5029072;28;20067;-69
2022/04/15 05:41:18;;;;;;;16.70;10.43;;;;;;;-145.18;100.00;60484.78;5002973;28;20184;-69
2022/04/15 05:43:44;;;;;;;16.33;9.43;;;;;;;-145.18;100.00;60484.78;5019475;28;20044;-69
2022/04/15 05:46:10;;;;;;;16.30;9.77;;;;;;;-145.18;100.00;60484.78;5014618;28;20034;-69
2022/04/15 05:48:36;;;;;;;13.13;8.10;;;;;;;-145.18;100.00;60484.78;5029901;28;20038;-69
2022/04/15 05:51:02;;;;;;;12.93;7.90;;;;;;;-145.18;100.00;60484.78;5026782;28;20028;-69
2022/04/15 05:53:28;;;;;;;14.17;7.83;;;;;;;-145.18;100.00;60484.78;5026043;28;20029;-69
2022/04/15 05:55:53;;;;;;;11.90;7.30;;;;;;;-145.18;100.00;60484.78;5030341;28;20025;-69
2022/04/15 05:58:18;;;;;;;12.17;7.07;;;;;;;-145.18;100.00;60484.78;5029531;28;20022;-69
2022/04/15 06:00:44;;;;;;;11.80;6.90;;;;;;;-145.18;100.00;60484.78;5020200;28;20033;-69
2022/04/15 06:03:10;;;;;;;12.30;7.50;;;;;;;-145.18;100.00;60484.78;5030525;28;20029;-69
2022/04/15 06:05:35;;;;;;;11.87;6.70;;;;;;;-145.18;100.00;60484.78;5023819;28;20033;-69
2022/04/15 06:08:01;;;;;;;11.53;6.80;;;;;;;-145.18;100.00;60484.78;5029019;28;20377;-69
2022/04/15 06:10:26;;;;;;;10.13;6.43;;;;;;;-145.18;100.00;60484.78;5026796;28;20116;-69
2022/04/15 06:12:54;;;;;;;11.00;6.50;;;;;;;-145.18;100.00;60484.78;5028280;28;20023;-69
2022/04/15 06:15:23;;;;;;;11.07;6.73;;;;;;;-145.18;100.00;60484.78;5026562;28;20613;-69
2022/04/15 06:17:50;;;;;;;9.90;5.73;;;;;;;-145.18;100.00;60484.78;5028286;28;20029;-69
2022/04/15 06:20:16;;;;;;;10.80;6.03;;;;;;;-145.18;100.00;60484.78;5026097;28;20079;-69
2022/04/15 06:22:43;;;;;;;9.43;6.00;;;;;;;-145.18;100.00;60484.78;5025455;28;20022;-69
2022/04/15 06:25:09;;;;;;;9.23;5.50;;;;;;;-145.18;100.00;60484.78;5021627;28;20029;-69
2022/04/15 06:27:34;;;;;;;8.90;5.20;;;;;;;-145.18;100.00;60484.78;5025717;28;20491;-69
2022/04/15 06:30:00;;;;;;;8.37;5.23;;;;;;;-145.18;100.00;60484.78;5026276;28;20030;-69
2022/04/15 06:32:25;;;;;;;13.00;5.53;;;;;;;-145.18;100.00;60484.78;5027890;28;20028;-69
2022/04/15 06:34:51;;;;;;;9.07;5.50;;;;;;;-145.18;100.00;60484.78;5025448;28;20686;-69
2022/04/15 06:37:16;;;;;;;10.60;5.57;;;;;;;-145.18;100.00;60484.78;5029769;28;20072;-69
2022/04/15 06:39:42;;;;;;;10.60;5.97;;;;;;;-145.18;100.00;60484.78;5023334;28;20043;-69
2022/04/15 06:42:08;;;;;;;10.57;5.30;;;;;;;-145.18;100.00;60484.78;5017844;28;20112;-69
2022/04/15 06:44:37;;;;;;;8.60;5.80;;;;;;;-145.18;100.00;60484.78;5006295;28;20116;-69
2022/04/15 06:47:02;;;;;;;12.00;5.93;;;;;;;-145.18;100.00;60484.78;5028469;28;20432;-69
2022/04/15 06:49:28;;;;;;;10.90;5.90;;;;;;;-145.18;100.00;60484.78;5021975;28;20029;-69
2022/04/15 06:51:53;;;;;;;9.77;5.83;;;;;;;-145.18;100.00;60484.78;5024886;28;20088;-69
2022/04/15 06:54:19;;;;;;;10.77;6.10;;;;;;;-145.18;100.00;60484.78;5027309;28;20477;-69
2022/04/15 06:56:44;;;;;;;9.97;5.90;;;;;;;-145.18;100.00;60484.78;5023285;28;20108;-69
2022/04/15 06:59:09;;;;;;;10.67;6.30;;;;;;;-145.18;100.00;60484.78;5010310;28;20033;-69
2022/04/15 07:01:35;;;;;;;9.67;5.73;;;;;;;-145.18;100.00;60484.78;5027765;28;20476;-69
2022/04/15 07:04:02;;;;;;;12.23;6.53;;;;;;;-145.18;100.00;60484.78;5022929;28;20080;-69
2022/04/15 07:06:29;;;;;;;10.50;6.50;;;;;;;-145.18;100.00;60484.78;5026340;28;20036;-69
2022/04/15 07:08:54;;;;;;;9.80;6.70;;;;;;;-145.18;100.00;60484.78;5017705;28;20386;-69
2022/04/15 07:11:20;;;;;;;9.70;6.30;;;;;;;-145.18;100.00;60484.78;5020128;28;20025;-69
2022/04/15 07:13:45;;;;;;;11.07;5.97;;;;;;;-145.18;100.00;60484.78;5027792;28;20033;-69
2022/04/15 07:16:11;;;;;;;11.60;6.27;;;;;;;-145.18;100.00;60484.78;5010327;28;20032;-69
2022/04/15 07:18:37;;;;;;;11.43;6.67;;;;;;;-145.18;100.00;60484.78;5023527;28;20100;-69
2022/04/15 07:21:02;;;;;;;12.50;6.70;;;;;;;-145.18;100.00;60484.78;5024418;28;20033;-69
2022/04/15 07:23:28;;;;;;;12.73;6.60;;;;;;;-145.18;100.00;60484.78;5028706;28;20072;-69
2022/04/15 07:25:53;;;;;;;9.70;6.07;;;;;;;-145.18;100.00;60484.78;5029838;28;20033;-69
2022/04/15 07:28:18;;;;;;;10.50;6.00;;;;;;;-145.18;100.00;60484.78;5028346;28;20461;-69
2022/04/15 07:30:44;;;;;;;11.07;6.73;;;;;;;-145.18;100.00;60484.78;5024157;28;20504;-69
2022/04/15 07:33:09;;;;;;;9.83;5.67;;;;;;;-145.18;100.00;60484.78;5028468;28;20083;-69
2022/04/15 07:35:34;;;;;;;11.10;6.50;;;;;;;-145.18;100.00;60484.78;5029206;28;20104;-69
2022/04/15 07:38:00;;;;;;;11.07;6.10;;;;;;;-145.18;100.00;60484.78;5030322;28;20022;-69
2022/04/15 07:40:28;;;;;;;13.50;6.60;;;;;;;-145.18;100.00;60484.78;5009258;28;20535;-69
2022/04/15 07:42:57;;;;;;;12.33;6.10;;;;;;;-145.18;100.00;60484.78;5025582;28;20028;-69
2022/04/15 07:45:22;;;;;;;11.80;6.70;;;;;;;-145.18;100.00;60484.78;5007433;28;20686;-69
2022/04/15 07:47:48;;;;;;;12.00;6.80;;;;;;;-145.18;100.00;60484.78;5024055;28;20026;-69
2022/04/15 07:50:14;;;;;;;12.73;7.37;;;;;;;-145.18;100.00;60484.78;5028702;28;20022;-69
2022/04/15 07:52:39;;;;;;;12.13;6.93;;;;;;;-145.18;100.00;60484.78;5027275;28;20033;-69
2022/04/15 07:55:05;;;;;;;11.67;7.20;;;;;;;-145.18;100.00;60484.78;5024487;28;20112;-69
2022/04/15 07:57:30;;;;;;;12.67;6.70;;;;;;;-145.18;100.00;60484.78;5027438;28;20473;-69
2022/04/15 07:59:56;;;;;;;12.20;7.10;;;;;;;-145.18;100.00;60484.78;5019857;28;20021;-69
2022/04/15 08:02:22;;;;;;;12.87;7.73;;;;;;;-145.18;100.00;60484.78;5026592;28;20061;-69
2022/04/15 08:04:47;;;;;;;14.20;7.63;;;;;;;-145.18;100.00;60484.78;5010998;28;20042;-69
2022/04/15 08:07:12;;;;;;;13.83;7.77;;;;;;;-145.18;100.00;60484.78;5011698;28;20036;-69
2022/04/15 08:09:39;;;;;;;16.07;8.20;;;;;;;-145.18;100.00;60484.78;5022282;28;20053;-69
2022/04/15 08:12:08;;;;;;;18.87;8.30;;;;;;;-145.18;100.00;60484.78;5027301;28;20026;-69
2022/04/15 08:14:34;;;;;;;15.70;8.60;;;;;;;-145.18;100.00;60484.78;5019701;28;20343;-69
2022/04/15 08:16:59;;;;;;;15.30;9.00;;;;;;;-145.18;100.00;60484.78;5026266;28;20231;-68
2022/04/15 08:19:25;;;;;;;13.90;8.03;;;;;;;-145.18;100.00;60484.78;5021965;28;20033;-69
2022/04/15 08:21:51;;;;;;;13.83;8.23;;;;;;;-145.18;100.00;60484.78;5027167;28;20036;-69
2022/04/15 08:24:16;;;;;;;14.97;8.07;;;;;;;-145.18;100.00;60484.78;5024362;28;20025;-69
2022/04/15 08:26:44;;;;;;;18.17;8.97;;;;;;;-145.18;100.00;60484.78;5025828;28;20071;-69
2022/04/15 08:29:10;;;;;;;15.83;8.10;;;;;;;-145.18;100.00;60484.78;5026792;28;20029;-69
2022/04/15 08:31:35;;;;;;;14.23;8.07;;;;;;;-145.18;100.00;60484.78;5026982;28;20044;-69
2022/04/15 08:34:02;;;;;;;13.27;7.83;;;;;;;-145.18;100.00;60484.78;5030961;28;20057;-69
2022/04/15 08:36:27;;;;;;;17.23;9.07;;;;;;;-145.18;100.00;60484.78;5030331;28;20022;-69
2022/04/15 08:38:53;;;;;;;20.03;9.90;;;;;;;-145.18;100.00;60484.78;5030957;28;20021;-69
2022/04/15 08:41:19;;;;;;;16.03;8.57;;;;;;;-145.18;100.00;60484.78;5030808;28;20025;-69
2022/04/15 08:43:45;;;;;;;15.07;8.70;;;;;;;-145.18;100.00;60484.78;5029861;28;20026;-69
2022/04/15 08:46:12;;;;;;;16.20;9.17;;;;;;;-145.18;100.00;60484.78;5032369;28;20037;-68
2022/04/15 08:48:38;;;;;;;16.97;9.47;;;;;;;-145.18;100.00;60484.78;5032046;28;20116;-68
2022/04/15 08:51:04;;;;;;;14.93;8.93;;;;;;;-145.18;100.00;60484.78;5030562;28;20440;-69
2022/04/15 08:53:31;;;;;;;17.97;8.73;;;;;;;-145.18;100.00;60484.78;5029910;28;20029;-68
2022/04/15 08:55:57;;;;;;;15.37;9.00;;;;;;;-145.18;100.00;60484.78;5031701;28;20481;-68
2022/04/15 08:58:25;;;;;;;15.93;8.60;;;;;;;-145.18;100.00;60484.78;5030311;28;20454;-69
2022/04/15 09:00:50;;;;;;;14.70;8.13;;;;;;;-145.18;100.00;60484.78;5027463;28;20029;-69
2022/04/15 09:03:15;;;;;;;16.53;9.37;;;;;;;-145.18;100.00;60484.78;5031095;28;20389;-68
2022/04/15 09:05:41;;;;;;;17.27;8.23;;;;;;;-145.18;100.00;60484.78;5031195;28;20072;-69
2022/04/15 09:08:10;;;;;;;19.63;8.13;;;;;;;-145.18;100.00;60484.78;5027055;28;20101;-69
2022/04/15 09:10:36;;;;;;;15.57;8.97;;;;;;;-145.18;100.00;60484.78;5025131;28;20083;-69
2022/04/15 09:13:03;;;;;;;18.07;9.33;;;;;;;-145.18;100.00;60484.78;5030004;28;20596;-69
2022/04/15 09:15:29;;;;;;;22.63;10.57;;;;;;;-145.18;100.00;60484.78;5027678;28;20489;-69
2022/04/15 09:17:55;;;;;;;20.10;10.90;;;;;;;-145.18;100.00;60484.78;5030882;28;20021;-69
2022/04/15 09:20:23;;;;;;;20.63;11.20;;;;;;;-145.18;100.00;60484.78;5027692;28;20036;-69
2022/04/15 09:22:53;;;;;;;24.63;11.97;;;;;;;-145.18;100.00;60484.78;5025234;28;20040;-69
2022/04/15 09:25:24;;;;;;;23.00;12.30;;;;;;;-145.18;100.00;60484.78;5015188;28;20033;-69
2022/04/15 09:27:54;;;;;;;23.80;14.05;;;;;;;-145.18;100.00;60484.78;5018663;28;20086;-69
2022/04/15 09:30:31;;;;;;;28.00;13.07;;;;;;;-145.18;100.00;60484.78;5020133;28;20099;-69
2022/04/15 09:33:01;;;;;;;24.53;12.77;;;;;;;-145.18;100.00;60484.78;5031635;28;20021;-69
2022/04/15 09:35:26;;;;;;;26.40;13.37;;;;;;;-145.18;100.00;60484.78;5023418;28;20041;-69
2022/04/15 09:37:52;;;;;;;24.40;12.80;;;;;;;-145.18;100.00;60484.78;5032192;28;20489;-69
2022/04/15 09:40:22;;;;;;;22.97;12.17;;;;;;;-145.18;100.00;60484.78;5017072;28;20029;-69
2022/04/15 09:42:55;;;;;;;21.17;11.20;;;;;;;-145.18;100.00;60484.78;5029948;28;20238;-69
2022/04/15 09:45:22;;;;;;;26.07;11.60;;;;;;;-145.18;100.00;60484.78;5022196;28;20034;-69
2022/04/15 09:47:51;;;;;;;20.87;11.43;;;;;;;-145.18;100.00;60484.78;5031890;28;20032;-69
2022/04/15 09:50:28;;;;;;;20.60;10.83;;;;;;;-145.18;100.00;60484.78;5024819;28;20118;-69
2022/04/15 09:52:55;;;;;;;19.50;10.43;;;;;;;-145.18;100.00;60484.78;5027066;28;20078;-69
2022/04/15 09:55:23;;;;;;;20.27;11.53;;;;;;;-145.18;100.00;60484.78;5028089;28;20124;-68
2022/04/15 09:57:50;;;;;;;23.50;10.77;;;;;;;-145.18;100.00;60484.78;5029595;28;20029;-68
2022/04/15 10:00:18;;;;;;;18.80;10.77;;;;;;;-145.18;100.00;60484.78;5022537;28;20032;-69
2022/04/15 10:02:44;;;;;;;17.87;10.43;;;;;;;-145.18;100.00;60484.78;5028189;28;20273;-69
2022/04/15 10:05:12;;;;;;;19.30;10.47;;;;;;;-145.18;100.00;60484.78;5018995;28;20160;-69
2022/04/15 10:07:40;;;;;;;21.77;10.70;;;;;;;-145.18;100.00;60484.78;5025069;28;20036;-68
2022/04/15 10:10:07;;;;;;;16.23;9.43;;;;;;;-145.18;100.00;60484.78;5020656;28;20516;-69
2022/04/15 10:12:39;;;;;;;18.83;9.30;;;;;;;-145.18;100.00;60484.78;5021480;28;20473;-69
2022/04/15 10:15:06;;;;;;;18.55;9.48;;;;;;;-145.18;100.00;60484.78;5019155;28;20316;-69
2022/04/15 10:17:33;;;;;;;15.03;9.53;;;;;;;-145.18;100.00;60484.78;5015878;28;20535;-69
2022/04/15 10:19:59;;;;;;;22.17;11.33;;;;;;;-145.18;100.00;60484.78;5019385;28;20048;-69
2022/04/15 10:22:25;;;;;;;17.87;10.13;;;;;;;-145.18;100.00;60484.78;5019991;28;20025;-69
2022/04/15 10:24:51;;;;;;;16.63;10.23;;;;;;;-145.18;100.00;60484.78;5022394;28;20033;-69
2022/04/15 10:27:24;;;;;;;16.73;9.50;;;;;;;-145.18;100.00;60484.78;5015016;28;20105;-69
2022/04/15 10:30:12;;;;;;;16.93;9.73;;;;;;;-145.18;100.00;60484.78;5015457;28;20136;-69
2022/04/15 10:32:52;;;;;;;16.97;10.87;;;;;;;-145.18;100.00;60484.78;5012261;28;20124;-69
2022/04/15 10:35:22;;;;;;;17.43;10.53;;;;;;;-145.18;100.00;60484.78;5022593;28;20346;-69
2022/04/15 10:38:11;;;;;;;19.43;9.93;;;;;;;-145.18;100.00;60484.78;5022625;28;20470;-69
2022/04/15 10:40:42;;;;;;;19.00;11.90;;;;;;;-145.18;100.00;60484.78;5006366;28;20037;-69
2022/04/15 10:43:20;;;;;;;19.00;12.77;;;;;;;-145.18;100.00;60484.78;5017408;28;20474;-69
2022/04/15 10:45:47;;;;;;;17.00;11.93;;;;;;;-145.18;100.00;60484.78;5023028;28;20059;-69
2022/04/15 10:48:13;;;;;;;17.40;12.37;;;;;;;-145.18;100.00;60484.78;5021876;28;20053;-69
2022/04/15 10:50:43;;;;;;;19.20;11.80;;;;;;;-145.18;100.00;60484.78;5024372;28;20160;-70
2022/04/15 10:53:27;;;;;;;17.03;11.87;;;;;;;-145.18;100.00;60484.78;5019046;28;20650;-70
2022/04/15 10:56:05;;;;;;;16.77;12.53;;;;;;;-145.18;100.00;60484.78;5017491;28;20044;-69
2022/04/15 11:01:13;;;;;;;17.75;11.30;;;;;;;-145.18;100.00;60484.78;5021092;28;20060;-69